sensor_id;sensor_type;location;lat;lon;timestamp;temperature;humidity
33827;DHT22;20128;45.582;5.298;2023-06-14T00:01:44;21.40;86.30
33827;DHT22;20128;45.582;5.298;2023-06-14T00:04:14;21.40;86.40
33827;DHT22;20128;45.582;5.298;2023-06-14T00:06:42;21.30;86.60
33827;DHT22;20128;45.582;5.298;2023-06-14T00:09:11;21.40;86.50
33827;DHT22;20128;45.582;5.298;2023-06-14T00:11:38;21.50;86.20
33827;DHT22;20128;45.582;5.298;2023-06-14T00:14:05;21.50;85.80
33827;DHT22;20128;45.582;5.298;2023-06-14T00:16:30;21.60;85.50
33827;DHT22;20128;45.582;5.298;2023-06-14T00:18:58;21.60;85.40
33827;DHT22;20128;45.582;5.298;2023-06-14T00:21:24;21.70;85.00
33827;DHT22;20128;45.582;5.298;2023-06-14T00:23:49;21.60;85.00
33827;DHT22;20128;45.582;5.298;2023-06-14T00:26:15;21.70;84.80
33827;DHT22;20128;45.582;5.298;2023-06-14T00:28:41;21.70;84.60
33827;DHT22;20128;45.582;5.298;2023-06-14T00:31:07;21.70;84.50
33827;DHT22;20128;45.582;5.298;2023-06-14T00:33:33;21.70;84.60
33827;DHT22;20128;45.582;5.298;2023-06-14T00:35:58;21.70;84.60
33827;DHT22;20128;45.582;5.298;2023-06-14T00:38:24;21.70;84.70
33827;DHT22;20128;45.582;5.298;2023-06-14T00:40:50;21.70;84.60
33827;DHT22;20128;45.582;5.298;2023-06-14T00:43:16;21.70;84.40
33827;DHT22;20128;45.582;5.298;2023-06-14T00:45:41;21.70;84.40
33827;DHT22;20128;45.582;5.298;2023-06-14T00:48:08;21.60;84.40
33827;DHT22;20128;45.582;5.298;2023-06-14T00:50:34;21.60;84.60
33827;DHT22;20128;45.582;5.298;2023-06-14T00:53:01;21.50;84.80
33827;DHT22;20128;45.582;5.298;2023-06-14T00:55:27;21.50;85.00
33827;DHT22;20128;45.582;5.298;2023-06-14T00:57:54;21.50;85.00
33827;DHT22;20128;45.582;5.298;2023-06-14T01:00:20;21.50;85.00
33827;DHT22;20128;45.582;5.298;2023-06-14T01:02:46;21.50;85.00
33827;DHT22;20128;45.582;5.298;2023-06-14T01:05:12;21.50;85.00
33827;DHT22;20128;45.582;5.298;2023-06-14T01:07:55;21.50;85.00
33827;DHT22;20128;45.582;5.298;2023-06-14T01:13:29;21.40;85.10
33827;DHT22;20128;45.582;5.298;2023-06-14T01:15:57;21.40;85.10
33827;DHT22;20128;45.582;5.298;2023-06-14T01:18:23;21.40;85.10
33827;DHT22;20128;45.582;5.298;2023-06-14T01:20:51;21.40;85.10
33827;DHT22;20128;45.582;5.298;2023-06-14T01:23:19;21.40;85.20
33827;DHT22;20128;45.582;5.298;2023-06-14T01:25:45;21.30;85.20
33827;DHT22;20128;45.582;5.298;2023-06-14T01:28:13;21.30;85.20
33827;DHT22;20128;45.582;5.298;2023-06-14T01:30:41;21.30;85.10
33827;DHT22;20128;45.582;5.298;2023-06-14T01:33:14;21.20;85.10
33827;DHT22;20128;45.582;5.298;2023-06-14T01:35:45;21.20;85.10
33827;DHT22;20128;45.582;5.298;2023-06-14T01:38:12;21.10;85.20
33827;DHT22;20128;45.582;5.298;2023-06-14T01:40:39;21.20;85.20
33827;DHT22;20128;45.582;5.298;2023-06-14T01:43:05;21.10;84.70
33827;DHT22;20128;45.582;5.298;2023-06-14T01:45:31;21.10;84.70
33827;DHT22;20128;45.582;5.298;2023-06-14T01:47:58;21.10;84.60
33827;DHT22;20128;45.582;5.298;2023-06-14T01:50:28;21.10;84.60
33827;DHT22;20128;45.582;5.298;2023-06-14T01:52:55;21.00;84.70
33827;DHT22;20128;45.582;5.298;2023-06-14T01:55:20;21.00;84.90
33827;DHT22;20128;45.582;5.298;2023-06-14T01:57:47;21.00;85.00
33827;DHT22;20128;45.582;5.298;2023-06-14T02:00:14;20.90;85.10
33827;DHT22;20128;45.582;5.298;2023-06-14T02:02:40;20.90;85.30
33827;DHT22;20128;45.582;5.298;2023-06-14T02:05:06;20.80;85.50
33827;DHT22;20128;45.582;5.298;2023-06-14T02:07:32;20.90;85.50
33827;DHT22;20128;45.582;5.298;2023-06-14T02:09:58;20.90;85.30
33827;DHT22;20128;45.582;5.298;2023-06-14T02:12:24;20.90;85.30
33827;DHT22;20128;45.582;5.298;2023-06-14T02:14:50;20.90;85.50
33827;DHT22;20128;45.582;5.298;2023-06-14T02:17:16;20.90;85.40
33827;DHT22;20128;45.582;5.298;2023-06-14T02:19:42;20.90;85.50
33827;DHT22;20128;45.582;5.298;2023-06-14T02:22:08;20.90;85.50
33827;DHT22;20128;45.582;5.298;2023-06-14T02:24:34;20.90;85.50
33827;DHT22;20128;45.582;5.298;2023-06-14T02:27:01;20.90;85.60
33827;DHT22;20128;45.582;5.298;2023-06-14T02:29:27;20.90;85.60
33827;DHT22;20128;45.582;5.298;2023-06-14T02:31:53;20.90;85.80
33827;DHT22;20128;45.582;5.298;2023-06-14T02:34:18;21.00;85.70
33827;DHT22;20128;45.582;5.298;2023-06-14T02:36:45;20.90;85.80
33827;DHT22;20128;45.582;5.298;2023-06-14T02:39:13;21.00;85.60
33827;DHT22;20128;45.582;5.298;2023-06-14T02:41:39;20.90;85.70
33827;DHT22;20128;45.582;5.298;2023-06-14T02:44:05;21.00;85.70
33827;DHT22;20128;45.582;5.298;2023-06-14T02:46:31;21.00;85.60
33827;DHT22;20128;45.582;5.298;2023-06-14T02:48:57;20.90;85.80
33827;DHT22;20128;45.582;5.298;2023-06-14T02:51:23;20.80;86.10
33827;DHT22;20128;45.582;5.298;2023-06-14T02:53:48;20.70;86.50
33827;DHT22;20128;45.582;5.298;2023-06-14T02:56:14;20.70;86.60
33827;DHT22;20128;45.582;5.298;2023-06-14T02:58:42;20.70;86.50
33827;DHT22;20128;45.582;5.298;2023-06-14T03:01:08;20.60;86.70
33827;DHT22;20128;45.582;5.298;2023-06-14T03:03:35;20.60;86.90
33827;DHT22;20128;45.582;5.298;2023-06-14T03:06:01;20.50;87.10
33827;DHT22;20128;45.582;5.298;2023-06-14T03:08:29;20.50;87.20
33827;DHT22;20128;45.582;5.298;2023-06-14T03:10:55;20.60;87.20
33827;DHT22;20128;45.582;5.298;2023-06-14T03:13:21;20.50;87.00
33827;DHT22;20128;45.582;5.298;2023-06-14T03:15:47;20.50;87.30
33827;DHT22;20128;45.582;5.298;2023-06-14T03:18:18;20.50;87.20
33827;DHT22;20128;45.582;5.298;2023-06-14T03:20:44;20.50;87.50
33827;DHT22;20128;45.582;5.298;2023-06-14T03:23:11;20.60;87.60
33827;DHT22;20128;45.582;5.298;2023-06-14T03:25:37;20.60;87.50
33827;DHT22;20128;45.582;5.298;2023-06-14T03:28:07;20.70;87.30
33827;DHT22;20128;45.582;5.298;2023-06-14T03:30:33;20.80;87.20
33827;DHT22;20128;45.582;5.298;2023-06-14T03:32:58;20.70;87.30
33827;DHT22;20128;45.582;5.298;2023-06-14T03:35:27;20.70;87.50
33827;DHT22;20128;45.582;5.298;2023-06-14T03:37:53;20.70;87.60
33827;DHT22;20128;45.582;5.298;2023-06-14T03:40:19;20.70;87.60
33827;DHT22;20128;45.582;5.298;2023-06-14T03:42:47;20.70;87.50
33827;DHT22;20128;45.582;5.298;2023-06-14T03:45:13;20.60;87.80
33827;DHT22;20128;45.582;5.298;2023-06-14T03:47:38;20.50;87.80
33827;DHT22;20128;45.582;5.298;2023-06-14T03:50:04;20.50;88.10
33827;DHT22;20128;45.582;5.298;2023-06-14T03:52:31;20.50;88.10
33827;DHT22;20128;45.582;5.298;2023-06-14T03:54:58;20.60;88.20
33827;DHT22;20128;45.582;5.298;2023-06-14T03:57:26;20.60;88.10
33827;DHT22;20128;45.582;5.298;2023-06-14T03:59:51;20.70;87.80
33827;DHT22;20128;45.582;5.298;2023-06-14T04:02:18;20.70;87.80
33827;DHT22;20128;45.582;5.298;2023-06-14T04:04:44;20.70;87.80
33827;DHT22;20128;45.582;5.298;2023-06-14T04:07:11;20.80;87.80
33827;DHT22;20128;45.582;5.298;2023-06-14T04:09:37;20.80;87.80
33827;DHT22;20128;45.582;5.298;2023-06-14T04:12:04;20.80;87.70
33827;DHT22;20128;45.582;5.298;2023-06-14T04:14:29;20.80;87.60
33827;DHT22;20128;45.582;5.298;2023-06-14T04:16:56;20.80;87.60
33827;DHT22;20128;45.582;5.298;2023-06-14T04:19:22;20.90;87.60
33827;DHT22;20128;45.582;5.298;2023-06-14T04:21:47;20.90;87.60
33827;DHT22;20128;45.582;5.298;2023-06-14T04:24:13;20.90;87.60
33827;DHT22;20128;45.582;5.298;2023-06-14T04:26:42;20.90;87.60
33827;DHT22;20128;45.582;5.298;2023-06-14T04:29:10;20.90;87.90
33827;DHT22;20128;45.582;5.298;2023-06-14T04:31:40;20.90;87.90
33827;DHT22;20128;45.582;5.298;2023-06-14T04:34:06;20.90;87.80
33827;DHT22;20128;45.582;5.298;2023-06-14T04:36:35;20.90;87.80
33827;DHT22;20128;45.582;5.298;2023-06-14T04:39:03;20.90;87.80
33827;DHT22;20128;45.582;5.298;2023-06-14T04:41:30;20.90;88.00
33827;DHT22;20128;45.582;5.298;2023-06-14T04:44:00;20.90;88.00
33827;DHT22;20128;45.582;5.298;2023-06-14T04:46:30;20.90;88.20
33827;DHT22;20128;45.582;5.298;2023-06-14T04:48:58;20.90;88.20
33827;DHT22;20128;45.582;5.298;2023-06-14T04:51:27;20.90;88.40
33827;DHT22;20128;45.582;5.298;2023-06-14T04:53:58;20.90;88.60
33827;DHT22;20128;45.582;5.298;2023-06-14T04:56:25;20.90;88.60
33827;DHT22;20128;45.582;5.298;2023-06-14T04:58:51;20.90;88.30
33827;DHT22;20128;45.582;5.298;2023-06-14T05:01:18;20.90;88.20
33827;DHT22;20128;45.582;5.298;2023-06-14T05:03:45;20.90;88.40
33827;DHT22;20128;45.582;5.298;2023-06-14T05:06:14;20.80;88.60
33827;DHT22;20128;45.582;5.298;2023-06-14T05:08:40;20.70;88.70
33827;DHT22;20128;45.582;5.298;2023-06-14T05:11:05;20.70;88.90
33827;DHT22;20128;45.582;5.298;2023-06-14T05:13:31;20.70;89.00
33827;DHT22;20128;45.582;5.298;2023-06-14T05:15:58;20.80;89.10
33827;DHT22;20128;45.582;5.298;2023-06-14T05:18:24;20.90;88.80
33827;DHT22;20128;45.582;5.298;2023-06-14T05:20:51;20.90;88.50
33827;DHT22;20128;45.582;5.298;2023-06-14T05:23:16;21.00;88.40
33827;DHT22;20128;45.582;5.298;2023-06-14T05:25:45;21.10;88.10
33827;DHT22;20128;45.582;5.298;2023-06-14T05:28:11;21.10;87.80
33827;DHT22;20128;45.582;5.298;2023-06-14T05:30:41;21.20;87.80
33827;DHT22;20128;45.582;5.298;2023-06-14T05:33:06;21.20;87.70
33827;DHT22;20128;45.582;5.298;2023-06-14T05:35:32;21.30;87.80
33827;DHT22;20128;45.582;5.298;2023-06-14T05:37:57;21.30;87.30
33827;DHT22;20128;45.582;5.298;2023-06-14T05:40:23;21.40;87.30
33827;DHT22;20128;45.582;5.298;2023-06-14T05:42:49;21.40;87.30
33827;DHT22;20128;45.582;5.298;2023-06-14T05:45:15;21.40;86.80
33827;DHT22;20128;45.582;5.298;2023-06-14T05:47:41;21.30;86.60
33827;DHT22;20128;45.582;5.298;2023-06-14T05:50:07;21.30;87.20
33827;DHT22;20128;45.582;5.298;2023-06-14T05:52:34;21.20;87.20
33827;DHT22;20128;45.582;5.298;2023-06-14T05:54:59;21.30;87.10
33827;DHT22;20128;45.582;5.298;2023-06-14T05:57:25;21.30;87.10
33827;DHT22;20128;45.582;5.298;2023-06-14T05:59:51;21.20;87.00
33827;DHT22;20128;45.582;5.298;2023-06-14T06:02:16;21.20;87.40
33827;DHT22;20128;45.582;5.298;2023-06-14T06:04:42;21.30;87.50
33827;DHT22;20128;45.582;5.298;2023-06-14T06:07:08;21.50;87.20
33827;DHT22;20128;45.582;5.298;2023-06-14T06:09:33;21.70;86.90
33827;DHT22;20128;45.582;5.298;2023-06-14T06:11:59;21.70;86.60
33827;DHT22;20128;45.582;5.298;2023-06-14T06:14:25;21.70;86.30
33827;DHT22;20128;45.582;5.298;2023-06-14T06:16:50;21.70;86.00
33827;DHT22;20128;45.582;5.298;2023-06-14T06:19:18;21.70;85.80
33827;DHT22;20128;45.582;5.298;2023-06-14T06:21:44;21.70;85.70
33827;DHT22;20128;45.582;5.298;2023-06-14T06:24:10;21.70;85.30
33827;DHT22;20128;45.582;5.298;2023-06-14T06:26:35;21.80;85.30
33827;DHT22;20128;45.582;5.298;2023-06-14T06:29:01;21.80;85.10
33827;DHT22;20128;45.582;5.298;2023-06-14T06:31:27;21.80;85.20
33827;DHT22;20128;45.582;5.298;2023-06-14T06:33:53;21.90;85.10
33827;DHT22;20128;45.582;5.298;2023-06-14T06:36:20;22.00;84.40
33827;DHT22;20128;45.582;5.298;2023-06-14T06:38:47;22.00;84.10
33827;DHT22;20128;45.582;5.298;2023-06-14T06:41:13;22.10;84.20
33827;DHT22;20128;45.582;5.298;2023-06-14T06:43:38;22.10;82.90
33827;DHT22;20128;45.582;5.298;2023-06-14T06:46:04;22.20;83.30
33827;DHT22;20128;45.582;5.298;2023-06-14T06:48:30;22.30;83.10
33827;DHT22;20128;45.582;5.298;2023-06-14T06:50:56;22.30;83.00
33827;DHT22;20128;45.582;5.298;2023-06-14T06:53:21;22.40;82.50
33827;DHT22;20128;45.582;5.298;2023-06-14T06:55:48;22.50;82.50
33827;DHT22;20128;45.582;5.298;2023-06-14T06:58:14;22.60;82.30
33827;DHT22;20128;45.582;5.298;2023-06-14T07:00:40;22.70;82.00
33827;DHT22;20128;45.582;5.298;2023-06-14T07:03:06;22.70;81.10
33827;DHT22;20128;45.582;5.298;2023-06-14T07:05:31;22.80;80.10
33827;DHT22;20128;45.582;5.298;2023-06-14T07:07:57;22.90;80.20
33827;DHT22;20128;45.582;5.298;2023-06-14T07:10:23;22.90;79.60
33827;DHT22;20128;45.582;5.298;2023-06-14T07:12:50;22.90;79.50
33827;DHT22;20128;45.582;5.298;2023-06-14T07:15:16;23.00;78.40
33827;DHT22;20128;45.582;5.298;2023-06-14T07:17:41;23.10;78.60
33827;DHT22;20128;45.582;5.298;2023-06-14T07:20:08;23.20;77.80
33827;DHT22;20128;45.582;5.298;2023-06-14T07:22:39;23.20;77.30
33827;DHT22;20128;45.582;5.298;2023-06-14T07:25:07;23.30;76.60
33827;DHT22;20128;45.582;5.298;2023-06-14T07:27:33;23.30;76.40
33827;DHT22;20128;45.582;5.298;2023-06-14T07:29:59;23.30;76.60
33827;DHT22;20128;45.582;5.298;2023-06-14T07:32:25;23.40;75.50
33827;DHT22;20128;45.582;5.298;2023-06-14T07:34:50;23.40;75.10
33827;DHT22;20128;45.582;5.298;2023-06-14T07:37:16;23.50;75.20
33827;DHT22;20128;45.582;5.298;2023-06-14T07:39:42;23.50;75.10
33827;DHT22;20128;45.582;5.298;2023-06-14T07:42:07;23.50;75.20
33827;DHT22;20128;45.582;5.298;2023-06-14T07:44:33;23.50;75.70
33827;DHT22;20128;45.582;5.298;2023-06-14T07:46:59;23.50;76.00
33827;DHT22;20128;45.582;5.298;2023-06-14T07:49:25;23.50;76.80
33827;DHT22;20128;45.582;5.298;2023-06-14T07:51:51;23.60;76.50
33827;DHT22;20128;45.582;5.298;2023-06-14T07:54:17;23.60;77.00
33827;DHT22;20128;45.582;5.298;2023-06-14T07:56:43;23.60;77.20
33827;DHT22;20128;45.582;5.298;2023-06-14T07:59:08;23.60;76.00
33827;DHT22;20128;45.582;5.298;2023-06-14T08:01:34;23.60;76.60
33827;DHT22;20128;45.582;5.298;2023-06-14T08:04:00;23.70;76.40
33827;DHT22;20128;45.582;5.298;2023-06-14T08:06:26;23.70;76.30
33827;DHT22;20128;45.582;5.298;2023-06-14T08:08:52;23.70;76.60
33827;DHT22;20128;45.582;5.298;2023-06-14T08:11:18;23.80;77.20
33827;DHT22;20128;45.582;5.298;2023-06-14T08:13:43;23.90;76.60
33827;DHT22;20128;45.582;5.298;2023-06-14T08:16:09;24.00;75.50
33827;DHT22;20128;45.582;5.298;2023-06-14T08:18:34;24.00;75.20
33827;DHT22;20128;45.582;5.298;2023-06-14T08:21:00;24.00;75.60
33827;DHT22;20128;45.582;5.298;2023-06-14T08:23:26;24.00;75.20
33827;DHT22;20128;45.582;5.298;2023-06-14T08:25:52;24.00;75.50
33827;DHT22;20128;45.582;5.298;2023-06-14T08:28:18;24.10;75.50
33827;DHT22;20128;45.582;5.298;2023-06-14T08:30:43;24.20;75.90
33827;DHT22;20128;45.582;5.298;2023-06-14T08:33:09;24.30;75.30
33827;DHT22;20128;45.582;5.298;2023-06-14T08:35:35;24.30;75.20
33827;DHT22;20128;45.582;5.298;2023-06-14T08:38:05;24.50;75.10
33827;DHT22;20128;45.582;5.298;2023-06-14T08:40:31;24.60;73.80
33827;DHT22;20128;45.582;5.298;2023-06-14T08:42:57;24.70;73.20
33827;DHT22;20128;45.582;5.298;2023-06-14T08:45:23;24.70;72.00
33827;DHT22;20128;45.582;5.298;2023-06-14T08:47:50;24.80;70.40
33827;DHT22;20128;45.582;5.298;2023-06-14T08:50:23;24.90;70.20
33827;DHT22;20128;45.582;5.298;2023-06-14T08:52:53;25.00;71.30
33827;DHT22;20128;45.582;5.298;2023-06-14T08:55:21;25.10;71.60
33827;DHT22;20128;45.582;5.298;2023-06-14T08:57:54;25.20;71.90
33827;DHT22;20128;45.582;5.298;2023-06-14T09:00:20;25.20;70.80
33827;DHT22;20128;45.582;5.298;2023-06-14T09:02:46;25.20;70.30
33827;DHT22;20128;45.582;5.298;2023-06-14T09:05:13;25.20;69.80
33827;DHT22;20128;45.582;5.298;2023-06-14T09:07:42;25.30;68.40
33827;DHT22;20128;45.582;5.298;2023-06-14T09:10:13;25.30;68.50
33827;DHT22;20128;45.582;5.298;2023-06-14T09:12:40;25.40;67.70
33827;DHT22;20128;45.582;5.298;2023-06-14T09:15:06;25.40;66.40
33827;DHT22;20128;45.582;5.298;2023-06-14T09:17:36;25.50;67.80
33827;DHT22;20128;45.582;5.298;2023-06-14T09:20:06;25.60;67.70
33827;DHT22;20128;45.582;5.298;2023-06-14T09:22:35;25.70;67.80
33827;DHT22;20128;45.582;5.298;2023-06-14T09:25:01;25.80;66.60
33827;DHT22;20128;45.582;5.298;2023-06-14T09:27:27;26.00;66.00
33827;DHT22;20128;45.582;5.298;2023-06-14T09:29:53;26.10;64.90
33827;DHT22;20128;45.582;5.298;2023-06-14T09:32:20;26.30;65.70
33827;DHT22;20128;45.582;5.298;2023-06-14T09:34:46;26.50;65.00
33827;DHT22;20128;45.582;5.298;2023-06-14T09:37:12;26.60;64.10
33827;DHT22;20128;45.582;5.298;2023-06-14T09:39:52;26.80;63.20
33827;DHT22;20128;45.582;5.298;2023-06-14T09:42:19;26.80;63.90
33827;DHT22;20128;45.582;5.298;2023-06-14T09:44:48;26.80;64.10
33827;DHT22;20128;45.582;5.298;2023-06-14T09:47:15;26.70;63.50
33827;DHT22;20128;45.582;5.298;2023-06-14T09:49:41;26.70;63.20
33827;DHT22;20128;45.582;5.298;2023-06-14T09:52:10;26.70;63.10
33827;DHT22;20128;45.582;5.298;2023-06-14T09:54:41;26.70;62.70
33827;DHT22;20128;45.582;5.298;2023-06-14T09:57:12;26.60;63.40
33827;DHT22;20128;45.582;5.298;2023-06-14T09:59:42;26.50;63.40
33827;DHT22;20128;45.582;5.298;2023-06-14T10:02:25;26.40;63.60
33827;DHT22;20128;45.582;5.298;2023-06-14T10:05:09;26.40;64.10
33827;DHT22;20128;45.582;5.298;2023-06-14T10:10:07;26.70;63.00
33827;DHT22;20128;45.582;5.298;2023-06-14T10:12:33;26.90;63.10
33827;DHT22;20128;45.582;5.298;2023-06-14T10:14:59;27.10;63.40
33827;DHT22;20128;45.582;5.298;2023-06-14T10:17:43;27.30;63.50
33827;DHT22;20128;45.582;5.298;2023-06-14T10:22:56;27.70;62.30
33827;DHT22;20128;45.582;5.298;2023-06-14T10:25:28;27.50;61.30
33827;DHT22;20128;45.582;5.298;2023-06-14T10:28:15;27.30;61.50
33827;DHT22;20128;45.582;5.298;2023-06-14T10:31:08;27.30;61.60
33827;DHT22;20128;45.582;5.298;2023-06-14T10:33:39;27.30;62.40
33827;DHT22;20128;45.582;5.298;2023-06-14T10:36:31;27.30;61.30
33827;DHT22;20128;45.582;5.298;2023-06-14T10:39:16;27.60;60.50
33827;DHT22;20128;45.582;5.298;2023-06-14T10:41:51;27.70;59.10
33827;DHT22;20128;45.582;5.298;2023-06-14T10:46:47;27.80;58.50
33827;DHT22;20128;45.582;5.298;2023-06-14T10:49:16;27.80;58.30
33827;DHT22;20128;45.582;5.298;2023-06-14T10:51:45;27.90;58.00
33827;DHT22;20128;45.582;5.298;2023-06-14T10:54:15;28.00;57.20
33827;DHT22;20128;45.582;5.298;2023-06-14T10:56:47;28.10;57.60
33827;DHT22;20128;45.582;5.298;2023-06-14T10:59:14;28.10;56.70
33827;DHT22;20128;45.582;5.298;2023-06-14T11:04:47;28.40;55.20
33827;DHT22;20128;45.582;5.298;2023-06-14T11:12:49;28.80;51.90
33827;DHT22;20128;45.582;5.298;2023-06-14T11:15:16;28.80;54.10
33827;DHT22;20128;45.582;5.298;2023-06-14T11:17:51;29.00;54.40
33827;DHT22;20128;45.582;5.298;2023-06-14T11:20:19;29.00;53.60
33827;DHT22;20128;45.582;5.298;2023-06-14T11:22:45;28.90;51.80
33827;DHT22;20128;45.582;5.298;2023-06-14T11:25:12;28.80;51.90
33827;DHT22;20128;45.582;5.298;2023-06-14T11:27:37;28.90;51.90
33827;DHT22;20128;45.582;5.298;2023-06-14T11:30:06;29.10;51.90
33827;DHT22;20128;45.582;5.298;2023-06-14T11:32:32;29.20;51.80
33827;DHT22;20128;45.582;5.298;2023-06-14T11:34:58;29.40;51.90
33827;DHT22;20128;45.582;5.298;2023-06-14T11:37:26;29.30;50.80
33827;DHT22;20128;45.582;5.298;2023-06-14T11:39:56;29.30;51.60
33827;DHT22;20128;45.582;5.298;2023-06-14T11:42:23;29.30;50.20
33827;DHT22;20128;45.582;5.298;2023-06-14T11:44:49;29.30;49.90
33827;DHT22;20128;45.582;5.298;2023-06-14T11:47:15;29.30;49.70
33827;DHT22;20128;45.582;5.298;2023-06-14T11:49:41;29.40;48.90
33827;DHT22;20128;45.582;5.298;2023-06-14T11:52:07;29.40;49.30
33827;DHT22;20128;45.582;5.298;2023-06-14T11:54:33;29.50;49.10
33827;DHT22;20128;45.582;5.298;2023-06-14T11:56:59;29.70;47.60
33827;DHT22;20128;45.582;5.298;2023-06-14T11:59:24;29.80;47.30
33827;DHT22;20128;45.582;5.298;2023-06-14T12:01:53;29.90;47.00
33827;DHT22;20128;45.582;5.298;2023-06-14T12:04:29;30.10;46.80
33827;DHT22;20128;45.582;5.298;2023-06-14T12:06:55;30.10;43.40
33827;DHT22;20128;45.582;5.298;2023-06-14T12:09:23;30.10;43.70
33827;DHT22;20128;45.582;5.298;2023-06-14T12:11:50;30.00;43.80
33827;DHT22;20128;45.582;5.298;2023-06-14T12:14:16;30.00;43.40
33827;DHT22;20128;45.582;5.298;2023-06-14T12:16:42;29.90;43.00
33827;DHT22;20128;45.582;5.298;2023-06-14T12:19:13;30.00;43.60
33827;DHT22;20128;45.582;5.298;2023-06-14T12:21:40;30.10;42.90
33827;DHT22;20128;45.582;5.298;2023-06-14T12:24:07;30.10;42.00
33827;DHT22;20128;45.582;5.298;2023-06-14T12:26:33;30.20;42.00
33827;DHT22;20128;45.582;5.298;2023-06-14T12:28:59;30.20;43.00
33827;DHT22;20128;45.582;5.298;2023-06-14T12:31:25;30.30;43.90
33827;DHT22;20128;45.582;5.298;2023-06-14T12:33:52;30.50;43.40
33827;DHT22;20128;45.582;5.298;2023-06-14T12:36:17;30.50;44.30
33827;DHT22;20128;45.582;5.298;2023-06-14T12:38:43;30.60;43.10
33827;DHT22;20128;45.582;5.298;2023-06-14T12:41:09;30.60;41.40
33827;DHT22;20128;45.582;5.298;2023-06-14T12:43:35;30.60;39.70
33827;DHT22;20128;45.582;5.298;2023-06-14T12:46:00;30.60;41.00
33827;DHT22;20128;45.582;5.298;2023-06-14T12:48:26;30.70;41.00
33827;DHT22;20128;45.582;5.298;2023-06-14T12:50:56;30.80;41.30
33827;DHT22;20128;45.582;5.298;2023-06-14T12:53:22;30.90;41.50
33827;DHT22;20128;45.582;5.298;2023-06-14T12:55:48;30.90;39.30
33827;DHT22;20128;45.582;5.298;2023-06-14T12:58:14;30.90;37.40
33827;DHT22;20128;45.582;5.298;2023-06-14T13:00:42;30.90;37.40
33827;DHT22;20128;45.582;5.298;2023-06-14T13:03:09;30.90;38.10
33827;DHT22;20128;45.582;5.298;2023-06-14T13:05:35;30.90;38.20
33827;DHT22;20128;45.582;5.298;2023-06-14T13:08:01;31.00;38.50
33827;DHT22;20128;45.582;5.298;2023-06-14T13:10:26;31.10;37.40
33827;DHT22;20128;45.582;5.298;2023-06-14T13:12:53;31.20;38.00
33827;DHT22;20128;45.582;5.298;2023-06-14T13:15:19;31.20;39.80
33827;DHT22;20128;45.582;5.298;2023-06-14T13:17:44;31.10;38.80
33827;DHT22;20128;45.582;5.298;2023-06-14T13:20:14;31.00;39.40
33827;DHT22;20128;45.582;5.298;2023-06-14T13:22:41;31.10;40.10
33827;DHT22;20128;45.582;5.298;2023-06-14T13:25:06;31.00;39.10
33827;DHT22;20128;45.582;5.298;2023-06-14T13:27:32;31.10;39.00
33827;DHT22;20128;45.582;5.298;2023-06-14T13:29:58;31.00;38.50
33827;DHT22;20128;45.582;5.298;2023-06-14T13:32:23;31.00;38.70
33827;DHT22;20128;45.582;5.298;2023-06-14T13:34:49;31.10;38.50
33827;DHT22;20128;45.582;5.298;2023-06-14T13:37:15;31.10;38.30
33827;DHT22;20128;45.582;5.298;2023-06-14T13:39:41;31.20;38.70
33827;DHT22;20128;45.582;5.298;2023-06-14T13:42:07;31.20;38.50
33827;DHT22;20128;45.582;5.298;2023-06-14T13:44:32;31.20;39.20
33827;DHT22;20128;45.582;5.298;2023-06-14T13:46:58;31.30;39.60
33827;DHT22;20128;45.582;5.298;2023-06-14T13:49:24;31.30;39.80
33827;DHT22;20128;45.582;5.298;2023-06-14T13:51:49;31.30;38.20
33827;DHT22;20128;45.582;5.298;2023-06-14T13:54:20;31.20;38.80
33827;DHT22;20128;45.582;5.298;2023-06-14T13:56:46;31.30;39.00
33827;DHT22;20128;45.582;5.298;2023-06-14T13:59:12;31.20;37.30
33827;DHT22;20128;45.582;5.298;2023-06-14T14:01:38;31.30;38.10
33827;DHT22;20128;45.582;5.298;2023-06-14T14:04:04;31.30;38.60
33827;DHT22;20128;45.582;5.298;2023-06-14T14:06:30;31.30;38.60
33827;DHT22;20128;45.582;5.298;2023-06-14T14:08:56;31.40;38.60
33827;DHT22;20128;45.582;5.298;2023-06-14T14:11:22;31.40;37.70
33827;DHT22;20128;45.582;5.298;2023-06-14T14:13:48;31.50;37.20
33827;DHT22;20128;45.582;5.298;2023-06-14T14:16:14;31.40;38.00
33827;DHT22;20128;45.582;5.298;2023-06-14T14:18:40;31.50;37.60
33827;DHT22;20128;45.582;5.298;2023-06-14T14:21:05;31.50;37.40
33827;DHT22;20128;45.582;5.298;2023-06-14T14:23:31;31.50;36.70
33827;DHT22;20128;45.582;5.298;2023-06-14T14:25:57;31.40;34.90
33827;DHT22;20128;45.582;5.298;2023-06-14T14:28:23;31.30;35.20
33827;DHT22;20128;45.582;5.298;2023-06-14T14:30:49;31.30;34.30
33827;DHT22;20128;45.582;5.298;2023-06-14T14:33:15;31.30;34.20
33827;DHT22;20128;45.582;5.298;2023-06-14T14:35:45;31.50;34.30
33827;DHT22;20128;45.582;5.298;2023-06-14T14:38:12;31.50;33.30
33827;DHT22;20128;45.582;5.298;2023-06-14T14:40:39;31.60;31.30
33827;DHT22;20128;45.582;5.298;2023-06-14T14:43:05;31.50;30.40
33827;DHT22;20128;45.582;5.298;2023-06-14T14:45:31;31.60;30.50
33827;DHT22;20128;45.582;5.298;2023-06-14T14:47:57;31.60;29.80
33827;DHT22;20128;45.582;5.298;2023-06-14T14:50:22;31.70;29.80
33827;DHT22;20128;45.582;5.298;2023-06-14T14:52:48;31.70;29.60
33827;DHT22;20128;45.582;5.298;2023-06-14T14:55:14;31.70;29.40
33827;DHT22;20128;45.582;5.298;2023-06-14T14:57:39;31.70;28.90
33827;DHT22;20128;45.582;5.298;2023-06-14T15:00:06;31.70;29.50
33827;DHT22;20128;45.582;5.298;2023-06-14T15:02:31;31.70;29.40
33827;DHT22;20128;45.582;5.298;2023-06-14T15:04:57;31.80;29.60
33827;DHT22;20128;45.582;5.298;2023-06-14T15:07:27;31.90;29.10
33827;DHT22;20128;45.582;5.298;2023-06-14T15:09:53;31.90;29.20
33827;DHT22;20128;45.582;5.298;2023-06-14T15:12:19;31.90;29.70
33827;DHT22;20128;45.582;5.298;2023-06-14T15:14:51;31.90;28.70
33827;DHT22;20128;45.582;5.298;2023-06-14T15:17:18;31.90;29.00
33827;DHT22;20128;45.582;5.298;2023-06-14T15:19:45;31.80;28.20
33827;DHT22;20128;45.582;5.298;2023-06-14T15:22:11;31.90;28.60
33827;DHT22;20128;45.582;5.298;2023-06-14T15:24:36;31.90;28.30
33827;DHT22;20128;45.582;5.298;2023-06-14T15:27:02;32.00;28.60
33827;DHT22;20128;45.582;5.298;2023-06-14T15:29:28;32.00;28.20
33827;DHT22;20128;45.582;5.298;2023-06-14T15:31:54;32.10;27.90
33827;DHT22;20128;45.582;5.298;2023-06-14T15:34:20;32.10;27.80
33827;DHT22;20128;45.582;5.298;2023-06-14T15:36:46;32.00;28.20
33827;DHT22;20128;45.582;5.298;2023-06-14T15:39:12;31.90;28.00
33827;DHT22;20128;45.582;5.298;2023-06-14T15:41:37;31.90;27.50
33827;DHT22;20128;45.582;5.298;2023-06-14T15:44:03;31.90;26.90
33827;DHT22;20128;45.582;5.298;2023-06-14T15:46:29;31.80;26.80
33827;DHT22;20128;45.582;5.298;2023-06-14T15:48:54;31.70;26.90